CFG225 LFMN-EDDK
Flight info
| Callsign | CFG225 |
|---|---|
| Flight time | 1h 26m |
| Altitude | 36000 |
| Route | BASIP DCT ANAKI DCT DEVOX DCT DESIP DCT ABESI DCT LADOL T163 KOVAN T844 ASKIK T840 GULKO GULKO1B |
| Aircraft | A320/M-SDE3FGHIRWY/LB1 |
Departure
| Time | 2026-04-26 16:08 |
|---|---|
| Airport | Nice-Côte d'Azur Airport (LFMN) |
Arrival
| Time | 2026-04-26 17:34 |
|---|---|
| Airport | Cologne Bonn Airport (EDDK) |
| Time | Latitude | Longitude | Altitude | Speed | Heading |
|---|---|---|---|---|---|
| 2026-04-26 15:26 | 43.66119 | 7.20684 | 21 ft | 0 kts | 261° |
| 2026-04-26 15:53 | 43.66120 | 7.20690 | 21 ft | 3 kts | 261° |
| 2026-04-26 15:54 | 43.66124 | 7.20727 | 23 ft | 4 kts | 260° |
| 2026-04-26 15:54 | 43.66128 | 7.20756 | 25 ft | 4 kts | 248° |
| 2026-04-26 15:54 | 43.66143 | 7.20781 | 24 ft | 4 kts | 193° |
| 2026-04-26 15:54 | 43.66167 | 7.20781 | 25 ft | 4 kts | 171° |
| 2026-04-26 15:55 | 43.66190 | 7.20775 | 24 ft | 1 kts | 171° |
| 2026-04-26 15:55 | 43.66191 | 7.20775 | 24 ft | 0 kts | 171° |
| 2026-04-26 15:59 | 43.66179 | 7.20778 | 23 ft | 4 kts | 171° |
| 2026-04-26 16:00 | 43.66144 | 7.20786 | 21 ft | 5 kts | 171° |
| 2026-04-26 16:00 | 43.66101 | 7.20796 | 21 ft | 6 kts | 171° |
| 2026-04-26 16:00 | 43.66061 | 7.20805 | 21 ft | 6 kts | 171° |
| 2026-04-26 16:00 | 43.66004 | 7.20818 | 21 ft | 11 kts | 171° |
| 2026-04-26 16:01 | 43.65916 | 7.20838 | 21 ft | 15 kts | 171° |
| 2026-04-26 16:01 | 43.65799 | 7.20864 | 21 ft | 18 kts | 171° |
| 2026-04-26 16:01 | 43.65695 | 7.20888 | 21 ft | 0 kts | 171° |
| 2026-04-26 16:02 | 43.65687 | 7.20890 | 21 ft | 4 kts | 171° |
| 2026-04-26 16:03 | 43.65598 | 7.20910 | 23 ft | 15 kts | 171° |
| 2026-04-26 16:03 | 43.65483 | 7.20935 | 21 ft | 18 kts | 171° |
| 2026-04-26 16:03 | 43.65366 | 7.20955 | 21 ft | 15 kts | 186° |
| 2026-04-26 16:03 | 43.65281 | 7.20867 | 21 ft | 16 kts | 226° |
| 2026-04-26 16:04 | 43.65196 | 7.20747 | 21 ft | 18 kts | 225° |
| 2026-04-26 16:04 | 43.65166 | 7.20704 | 21 ft | 3 kts | 225° |
| 2026-04-26 16:04 | 43.65153 | 7.20686 | 21 ft | 2 kts | 225° |
| 2026-04-26 16:04 | 43.65145 | 7.20675 | 21 ft | 1 kts | 225° |
| 2026-04-26 16:05 | 43.65124 | 7.20645 | 21 ft | 9 kts | 225° |
| 2026-04-26 16:05 | 43.65079 | 7.20583 | 21 ft | 11 kts | 225° |
| 2026-04-26 16:05 | 43.65019 | 7.20499 | 21 ft | 13 kts | 225° |
| 2026-04-26 16:05 | 43.64948 | 7.20400 | 22 ft | 15 kts | 225° |
| 2026-04-26 16:06 | 43.64872 | 7.20296 | 21 ft | 14 kts | 224° |
| 2026-04-26 16:06 | 43.64781 | 7.20294 | 23 ft | 15 kts | 136° |
| 2026-04-26 16:06 | 43.64782 | 7.20397 | 25 ft | 0 kts | 41° |
| 2026-04-26 16:07 | 43.64783 | 7.20399 | 25 ft | 1 kts | 45° |
| 2026-04-26 16:07 | 43.64784 | 7.20400 | 25 ft | 0 kts | 45° |
| 2026-04-26 16:07 | 43.64801 | 7.20424 | 24 ft | 24 kts | 45° |
| 2026-04-26 16:08 | 43.65118 | 7.20861 | 21 ft | 100 kts | 44° |
| 2026-04-26 16:08 | 43.65512 | 7.21395 | 24 ft | 139 kts | 44° |
| 2026-04-26 16:08 | 43.66528 | 7.22880 | 490 ft | 162 kts | 47° |
| 2026-04-26 16:08 | 43.67079 | 7.24217 | 1185 ft | 164 kts | 76° |
| 2026-04-26 16:09 | 43.67010 | 7.25856 | 1567 ft | 185 kts | 111° |
| 2026-04-26 16:09 | 43.66209 | 7.27385 | 1878 ft | 210 kts | 133° |
| 2026-04-26 16:09 | 43.65198 | 7.28888 | 2592 ft | 215 kts | 132° |
| 2026-04-26 16:09 | 43.64180 | 7.30416 | 3398 ft | 218 kts | 129° |
| 2026-04-26 16:10 | 43.63506 | 7.32282 | 4141 ft | 221 kts | 98° |
| 2026-04-26 16:10 | 43.63661 | 7.34375 | 4904 ft | 223 kts | 71° |
| 2026-04-26 16:10 | 43.64187 | 7.36397 | 5699 ft | 224 kts | 70° |
| 2026-04-26 16:10 | 43.64721 | 7.38421 | 6523 ft | 226 kts | 70° |
| 2026-04-26 16:11 | 43.65258 | 7.40466 | 7272 ft | 228 kts | 70° |
| 2026-04-26 16:11 | 43.65802 | 7.42536 | 8008 ft | 230 kts | 70° |
| 2026-04-26 16:11 | 43.66349 | 7.44624 | 8780 ft | 233 kts | 69° |
| 2026-04-26 16:11 | 43.66895 | 7.46715 | 9557 ft | 236 kts | 69° |
| 2026-04-26 16:12 | 43.67452 | 7.48862 | 10294 ft | 239 kts | 69° |
| 2026-04-26 16:12 | 43.68043 | 7.51109 | 10659 ft | 260 kts | 69° |
| 2026-04-26 16:12 | 43.69415 | 7.56229 | 11151 ft | 308 kts | 69° |
| 2026-04-26 16:13 | 43.70182 | 7.59105 | 11411 ft | 330 kts | 69° |
| 2026-04-26 16:13 | 43.70984 | 7.62129 | 11975 ft | 339 kts | 69° |
| 2026-04-26 16:13 | 43.71798 | 7.65213 | 12681 ft | 344 kts | 69° |
| 2026-04-26 16:13 | 43.72623 | 7.68336 | 13403 ft | 348 kts | 69° |
| 2026-04-26 16:14 | 43.73620 | 7.71399 | 14075 ft | 352 kts | 58° |
| 2026-04-26 16:14 | 43.75134 | 7.74077 | 14679 ft | 356 kts | 47° |
| 2026-04-26 16:14 | 43.78467 | 7.79259 | 15844 ft | 366 kts | 47° |
| 2026-04-26 16:15 | 43.80168 | 7.81909 | 16082 ft | 369 kts | 47° |
| 2026-04-26 16:15 | 43.81872 | 7.84574 | 16144 ft | 370 kts | 47° |
| 2026-04-26 16:15 | 43.83574 | 7.87248 | 16151 ft | 370 kts | 47° |
| 2026-04-26 16:16 | 43.86967 | 7.92601 | 16148 ft | 370 kts | 47° |
| 2026-04-26 16:16 | 43.88655 | 7.95290 | 16143 ft | 370 kts | 50° |
| 2026-04-26 16:16 | 43.90090 | 7.98249 | 16149 ft | 371 kts | 59° |
| 2026-04-26 16:16 | 43.91362 | 8.01363 | 16140 ft | 371 kts | 60° |
| 2026-04-26 16:17 | 43.92634 | 8.04477 | 16141 ft | 371 kts | 59° |
| 2026-04-26 16:17 | 43.93906 | 8.07592 | 16138 ft | 371 kts | 59° |
| 2026-04-26 16:17 | 43.95177 | 8.10708 | 16140 ft | 371 kts | 59° |
| 2026-04-26 16:17 | 43.96446 | 8.13823 | 16141 ft | 371 kts | 59° |
| 2026-04-26 16:18 | 43.97697 | 8.16900 | 16136 ft | 371 kts | 59° |
| 2026-04-26 16:18 | 44.00232 | 8.23138 | 16136 ft | 371 kts | 59° |
| 2026-04-26 16:19 | 44.02766 | 8.29378 | 16141 ft | 371 kts | 59° |
| 2026-04-26 16:19 | 44.04030 | 8.32503 | 16141 ft | 371 kts | 60° |
| 2026-04-26 16:19 | 44.06126 | 8.37701 | 16147 ft | 371 kts | 60° |
| 2026-04-26 16:20 | 44.07811 | 8.41884 | 16145 ft | 370 kts | 60° |
| 2026-04-26 16:20 | 44.10331 | 8.48135 | 16152 ft | 370 kts | 60° |
| 2026-04-26 16:20 | 44.11592 | 8.51262 | 16156 ft | 371 kts | 59° |
| 2026-04-26 16:21 | 44.12854 | 8.54396 | 16154 ft | 371 kts | 60° |
| 2026-04-26 16:21 | 44.14111 | 8.57530 | 16155 ft | 371 kts | 60° |
| 2026-04-26 16:21 | 44.15366 | 8.60670 | 16151 ft | 371 kts | 60° |
| 2026-04-26 16:21 | 44.16621 | 8.63808 | 16156 ft | 371 kts | 60° |
| 2026-04-26 16:22 | 44.17991 | 8.66844 | 16158 ft | 370 kts | 50° |
| 2026-04-26 16:22 | 44.19786 | 8.69391 | 16154 ft | 368 kts | 37° |
| 2026-04-26 16:22 | 44.21937 | 8.71295 | 16155 ft | 366 kts | 24° |
| 2026-04-26 16:22 | 44.24337 | 8.72467 | 16155 ft | 365 kts | 11° |
| 2026-04-26 16:23 | 44.26822 | 8.72858 | 16151 ft | 365 kts | 1° |
| 2026-04-26 16:23 | 44.29360 | 8.72961 | 16149 ft | 365 kts | 0° |
| 2026-04-26 16:23 | 44.31893 | 8.73067 | 16141 ft | 364 kts | 0° |
| 2026-04-26 16:23 | 44.34424 | 8.73174 | 16138 ft | 364 kts | 1° |
| 2026-04-26 16:24 | 44.36954 | 8.73282 | 16140 ft | 363 kts | 0° |
| 2026-04-26 16:24 | 44.39481 | 8.73390 | 16137 ft | 363 kts | 1° |
| 2026-04-26 16:24 | 44.42011 | 8.73499 | 16140 ft | 364 kts | 1° |
| 2026-04-26 16:24 | 44.44539 | 8.73613 | 16140 ft | 363 kts | 0° |
| 2026-04-26 16:25 | 44.47064 | 8.73725 | 16140 ft | 363 kts | 0° |
| 2026-04-26 16:25 | 44.49593 | 8.73834 | 16136 ft | 364 kts | 0° |
| 2026-04-26 16:25 | 44.52122 | 8.73941 | 16137 ft | 363 kts | 0° |
| 2026-04-26 16:25 | 44.54649 | 8.74048 | 16135 ft | 363 kts | 0° |
| 2026-04-26 16:26 | 44.57177 | 8.74156 | 16136 ft | 364 kts | 0° |
| 2026-04-26 16:26 | 44.58855 | 8.74228 | 16137 ft | 364 kts | 0° |
| 2026-04-26 16:26 | 44.62231 | 8.74373 | 16134 ft | 363 kts | 0° |
| 2026-04-26 16:26 | 44.64728 | 8.74486 | 16134 ft | 364 kts | 1° |
| 2026-04-26 16:27 | 44.67257 | 8.74597 | 16121 ft | 364 kts | 0° |
| 2026-04-26 16:27 | 44.69776 | 8.74867 | 16124 ft | 364 kts | 8° |
| 2026-04-26 16:27 | 44.72238 | 8.75709 | 16125 ft | 365 kts | 14° |
| 2026-04-26 16:27 | 44.74684 | 8.76675 | 16114 ft | 365 kts | 14° |
| 2026-04-26 16:28 | 44.77127 | 8.77641 | 16110 ft | 365 kts | 15° |
| 2026-04-26 16:28 | 44.79571 | 8.78610 | 16106 ft | 365 kts | 14° |
| 2026-04-26 16:28 | 44.82016 | 8.79579 | 16103 ft | 365 kts | 14° |
| 2026-04-26 16:28 | 44.84461 | 8.80542 | 16101 ft | 365 kts | 14° |
| 2026-04-26 16:29 | 44.86904 | 8.81504 | 16101 ft | 365 kts | 13° |
| 2026-04-26 16:29 | 44.89349 | 8.82468 | 16094 ft | 365 kts | 15° |
| 2026-04-26 16:29 | 44.91792 | 8.83432 | 16094 ft | 365 kts | 14° |
| 2026-04-26 16:29 | 44.94237 | 8.84395 | 16091 ft | 365 kts | 15° |
| 2026-04-26 16:30 | 44.96681 | 8.85360 | 16085 ft | 365 kts | 14° |
| 2026-04-26 16:30 | 44.99125 | 8.86330 | 16087 ft | 365 kts | 13° |
| 2026-04-26 16:30 | 45.01565 | 8.87299 | 16110 ft | 365 kts | 14° |
| 2026-04-26 16:30 | 45.04007 | 8.88266 | 16114 ft | 365 kts | 14° |
| 2026-04-26 16:31 | 45.06456 | 8.89235 | 16115 ft | 365 kts | 14° |
| 2026-04-26 16:31 | 45.08895 | 8.90204 | 16111 ft | 365 kts | 15° |
| 2026-04-26 16:31 | 45.11341 | 8.91178 | 16113 ft | 365 kts | 14° |
| 2026-04-26 16:31 | 45.13788 | 8.92152 | 16112 ft | 365 kts | 14° |
| 2026-04-26 16:32 | 45.16234 | 8.93123 | 16109 ft | 365 kts | 14° |
| 2026-04-26 16:32 | 45.17852 | 8.93767 | 16107 ft | 365 kts | 14° |
| 2026-04-26 16:32 | 45.20297 | 8.94742 | 16103 ft | 365 kts | 14° |
| 2026-04-26 16:32 | 45.22740 | 8.95718 | 16099 ft | 365 kts | 14° |
| 2026-04-26 16:33 | 45.25186 | 8.96695 | 16094 ft | 365 kts | 14° |
| 2026-04-26 16:33 | 45.27632 | 8.97673 | 16092 ft | 365 kts | 14° |
| 2026-04-26 16:33 | 45.30870 | 8.98972 | 16074 ft | 365 kts | 14° |
| 2026-04-26 16:33 | 45.33314 | 8.99957 | 16079 ft | 365 kts | 14° |
| 2026-04-26 16:34 | 45.34965 | 9.00622 | 16080 ft | 365 kts | 14° |
| 2026-04-26 16:34 | 45.37409 | 9.01607 | 16075 ft | 365 kts | 14° |
| 2026-04-26 16:34 | 45.39851 | 9.02591 | 16076 ft | 365 kts | 14° |
| 2026-04-26 16:34 | 45.42295 | 9.03573 | 16084 ft | 365 kts | 14° |
| 2026-04-26 16:35 | 45.44741 | 9.04555 | 16082 ft | 365 kts | 14° |
| 2026-04-26 16:35 | 45.47186 | 9.05537 | 16136 ft | 367 kts | 14° |
| 2026-04-26 16:35 | 45.49657 | 9.06532 | 16794 ft | 370 kts | 14° |
| 2026-04-26 16:35 | 45.52141 | 9.07535 | 17454 ft | 373 kts | 14° |
| 2026-04-26 16:36 | 45.54651 | 9.08548 | 18083 ft | 377 kts | 14° |
| 2026-04-26 16:36 | 45.57184 | 9.09576 | 18656 ft | 380 kts | 14° |
| 2026-04-26 16:36 | 45.59741 | 9.10614 | 19193 ft | 384 kts | 14° |
| 2026-04-26 16:36 | 45.62325 | 9.11642 | 19744 ft | 387 kts | 11° |
| 2026-04-26 16:37 | 45.64982 | 9.12211 | 20273 ft | 388 kts | 1° |
| 2026-04-26 16:37 | 45.67678 | 9.12096 | 20807 ft | 389 kts | 351° |
| 2026-04-26 16:37 | 45.70344 | 9.11662 | 21336 ft | 392 kts | 351° |
| 2026-04-26 16:37 | 45.73068 | 9.11222 | 21864 ft | 396 kts | 351° |
| 2026-04-26 16:38 | 45.75818 | 9.10776 | 22391 ft | 400 kts | 351° |
| 2026-04-26 16:38 | 45.78593 | 9.10330 | 22910 ft | 403 kts | 351° |
| 2026-04-26 16:38 | 45.81395 | 9.09881 | 23418 ft | 407 kts | 351° |
| 2026-04-26 16:38 | 45.84218 | 9.09430 | 23884 ft | 410 kts | 351° |
| 2026-04-26 16:39 | 45.87057 | 9.08975 | 24311 ft | 412 kts | 351° |
| 2026-04-26 16:39 | 45.89908 | 9.08516 | 24778 ft | 413 kts | 351° |
| 2026-04-26 16:39 | 45.92773 | 9.08054 | 25193 ft | 415 kts | 351° |
| 2026-04-26 16:39 | 45.95652 | 9.07588 | 25606 ft | 417 kts | 351° |
| 2026-04-26 16:40 | 45.98546 | 9.07117 | 25993 ft | 420 kts | 351° |
| 2026-04-26 16:40 | 46.01454 | 9.06643 | 26365 ft | 422 kts | 351° |
| 2026-04-26 16:40 | 46.04371 | 9.06167 | 26772 ft | 423 kts | 351° |
| 2026-04-26 16:40 | 46.07311 | 9.05687 | 27141 ft | 426 kts | 351° |
| 2026-04-26 16:41 | 46.10264 | 9.05205 | 27495 ft | 428 kts | 351° |
| 2026-04-26 16:41 | 46.13235 | 9.04724 | 27869 ft | 431 kts | 351° |
| 2026-04-26 16:41 | 46.16219 | 9.04252 | 28220 ft | 433 kts | 352° |
| 2026-04-26 16:41 | 46.19239 | 9.03926 | 28566 ft | 437 kts | 354° |
| 2026-04-26 16:42 | 46.22287 | 9.03755 | 28919 ft | 440 kts | 355° |
| 2026-04-26 16:42 | 46.25358 | 9.03676 | 29260 ft | 442 kts | 356° |
| 2026-04-26 16:42 | 46.28438 | 9.03633 | 29590 ft | 445 kts | 356° |
| 2026-04-26 16:42 | 46.31539 | 9.03579 | 29912 ft | 447 kts | 356° |
| 2026-04-26 16:43 | 46.34658 | 9.03495 | 30187 ft | 449 kts | 355° |
| 2026-04-26 16:43 | 46.37788 | 9.03378 | 30454 ft | 451 kts | 355° |
| 2026-04-26 16:43 | 46.40926 | 9.03240 | 30731 ft | 452 kts | 355° |
| 2026-04-26 16:43 | 46.44073 | 9.03090 | 30979 ft | 453 kts | 355° |
| 2026-04-26 16:44 | 46.47231 | 9.02933 | 31192 ft | 455 kts | 355° |
| 2026-04-26 16:44 | 46.50401 | 9.02781 | 31462 ft | 455 kts | 355° |
| 2026-04-26 16:44 | 46.53562 | 9.02640 | 31793 ft | 453 kts | 355° |
| 2026-04-26 16:44 | 46.56672 | 9.02509 | 32083 ft | 453 kts | 355° |
| 2026-04-26 16:45 | 46.59859 | 9.02376 | 32417 ft | 452 kts | 355° |
| 2026-04-26 16:45 | 46.62957 | 9.02247 | 32812 ft | 450 kts | 355° |
| 2026-04-26 16:45 | 46.66122 | 9.02112 | 33216 ft | 447 kts | 355° |
| 2026-04-26 16:45 | 46.69178 | 9.01977 | 33570 ft | 445 kts | 355° |
| 2026-04-26 16:46 | 46.72273 | 9.01838 | 33932 ft | 444 kts | 355° |
| 2026-04-26 16:46 | 46.75360 | 9.01701 | 34252 ft | 443 kts | 355° |
| 2026-04-26 16:46 | 46.78444 | 9.01566 | 34520 ft | 443 kts | 355° |
| 2026-04-26 16:46 | 46.81525 | 9.01435 | 34780 ft | 442 kts | 355° |
| 2026-04-26 16:47 | 46.84599 | 9.01302 | 35079 ft | 441 kts | 355° |
| 2026-04-26 16:47 | 46.87660 | 9.01170 | 35381 ft | 440 kts | 355° |
| 2026-04-26 16:47 | 46.90710 | 9.01038 | 35675 ft | 438 kts | 355° |
| 2026-04-26 16:47 | 46.93757 | 9.00904 | 35937 ft | 437 kts | 355° |
| 2026-04-26 16:48 | 46.96796 | 9.00767 | 36123 ft | 438 kts | 355° |
| 2026-04-26 16:48 | 46.99831 | 9.00631 | 36168 ft | 435 kts | 355° |
| 2026-04-26 16:48 | 47.05872 | 9.00358 | 36164 ft | 433 kts | 355° |
| 2026-04-26 16:49 | 47.11896 | 9.00083 | 36172 ft | 433 kts | 355° |
| 2026-04-26 16:49 | 47.17922 | 8.99819 | 36178 ft | 433 kts | 355° |
| 2026-04-26 16:50 | 47.23948 | 8.99559 | 36182 ft | 433 kts | 355° |
| 2026-04-26 16:50 | 47.29963 | 8.99286 | 36195 ft | 433 kts | 355° |
| 2026-04-26 16:51 | 47.35984 | 8.99011 | 36191 ft | 433 kts | 355° |
| 2026-04-26 16:51 | 47.41999 | 8.98739 | 36184 ft | 432 kts | 355° |
| 2026-04-26 16:52 | 47.46996 | 8.98513 | 36197 ft | 432 kts | 355° |
| 2026-04-26 16:52 | 47.54030 | 8.98198 | 36192 ft | 433 kts | 355° |
| 2026-04-26 16:53 | 47.60046 | 8.97922 | 36191 ft | 433 kts | 355° |
| 2026-04-26 16:53 | 47.66063 | 8.97651 | 36188 ft | 433 kts | 355° |
| 2026-04-26 16:54 | 47.72079 | 8.97377 | 36193 ft | 432 kts | 355° |
| 2026-04-26 16:54 | 47.78093 | 8.97110 | 36188 ft | 432 kts | 355° |
| 2026-04-26 16:55 | 47.84108 | 8.96836 | 36185 ft | 432 kts | 355° |
| 2026-04-26 16:55 | 47.90120 | 8.96562 | 36198 ft | 432 kts | 355° |
| 2026-04-26 16:56 | 47.99146 | 8.96143 | 36200 ft | 432 kts | 355° |
| 2026-04-26 16:57 | 48.05160 | 8.95866 | 36188 ft | 432 kts | 355° |
| 2026-04-26 16:57 | 48.14165 | 8.95459 | 36211 ft | 431 kts | 356° |
| 2026-04-26 16:58 | 48.19154 | 8.95712 | 36210 ft | 433 kts | 3° |
| 2026-04-26 16:59 | 48.29161 | 8.97224 | 36210 ft | 433 kts | 3° |
| 2026-04-26 17:00 | 48.41104 | 8.99039 | 36212 ft | 433 kts | 3° |
| 2026-04-26 17:00 | 48.50080 | 9.00414 | 36212 ft | 432 kts | 3° |
| 2026-04-26 17:01 | 48.56066 | 9.01331 | 36204 ft | 432 kts | 3° |
| 2026-04-26 17:01 | 48.62047 | 9.02248 | 36199 ft | 432 kts | 3° |
| 2026-04-26 17:02 | 48.68016 | 9.03413 | 36202 ft | 433 kts | 6° |
| 2026-04-26 17:02 | 48.73965 | 9.04915 | 36211 ft | 434 kts | 7° |
| 2026-04-26 17:03 | 48.79956 | 9.06450 | 36208 ft | 434 kts | 7° |
| 2026-04-26 17:03 | 48.85882 | 9.07717 | 36207 ft | 431 kts | 359° |
| 2026-04-26 17:04 | 48.91768 | 9.06627 | 36210 ft | 425 kts | 341° |
| 2026-04-26 17:04 | 48.97387 | 9.03815 | 36218 ft | 425 kts | 340° |
| 2026-04-26 17:05 | 49.03004 | 9.01006 | 36220 ft | 425 kts | 340° |
| 2026-04-26 17:05 | 49.08620 | 8.98179 | 36219 ft | 425 kts | 340° |
| 2026-04-26 17:06 | 49.14233 | 8.95337 | 36217 ft | 425 kts | 340° |
| 2026-04-26 17:06 | 49.19843 | 8.92496 | 36228 ft | 425 kts | 340° |
| 2026-04-26 17:07 | 49.25448 | 8.89650 | 36227 ft | 425 kts | 340° |
| 2026-04-26 17:07 | 49.31053 | 8.86796 | 36229 ft | 424 kts | 340° |
| 2026-04-26 17:08 | 49.36650 | 8.83936 | 36230 ft | 423 kts | 340° |
| 2026-04-26 17:08 | 49.42248 | 8.81138 | 36239 ft | 423 kts | 341° |
| 2026-04-26 17:09 | 49.46954 | 8.79062 | 36238 ft | 423 kts | 342° |
| 2026-04-26 17:09 | 49.53598 | 8.76269 | 36233 ft | 423 kts | 342° |
| 2026-04-26 17:10 | 49.59263 | 8.73830 | 36227 ft | 423 kts | 342° |
| 2026-04-26 17:10 | 49.62104 | 8.72584 | 35630 ft | 426 kts | 342° |
| 2026-04-26 17:10 | 49.64987 | 8.71308 | 34439 ft | 437 kts | 342° |
| 2026-04-26 17:11 | 49.67931 | 8.69999 | 33363 ft | 440 kts | 342° |
| 2026-04-26 17:11 | 49.70844 | 8.68709 | 32872 ft | 431 kts | 342° |
| 2026-04-26 17:11 | 49.73708 | 8.67442 | 32304 ft | 425 kts | 342° |
| 2026-04-26 17:11 | 49.76532 | 8.66191 | 31736 ft | 419 kts | 342° |
| 2026-04-26 17:12 | 49.82075 | 8.63729 | 30656 ft | 409 kts | 342° |
| 2026-04-26 17:12 | 49.84793 | 8.62519 | 30093 ft | 405 kts | 342° |
| 2026-04-26 17:13 | 49.90143 | 8.60135 | 29028 ft | 394 kts | 342° |
| 2026-04-26 17:13 | 49.92762 | 8.58971 | 28533 ft | 389 kts | 342° |
| 2026-04-26 17:13 | 49.97903 | 8.56675 | 27550 ft | 380 kts | 342° |
| 2026-04-26 17:14 | 50.00434 | 8.55538 | 27082 ft | 376 kts | 342° |
| 2026-04-26 17:14 | 50.05412 | 8.53302 | 26149 ft | 369 kts | 342° |
| 2026-04-26 17:14 | 50.07854 | 8.52110 | 25691 ft | 366 kts | 340° |
| 2026-04-26 17:15 | 50.12630 | 8.49517 | 24797 ft | 361 kts | 339° |
| 2026-04-26 17:15 | 50.14984 | 8.48200 | 24352 ft | 358 kts | 339° |
| 2026-04-26 17:15 | 50.17325 | 8.46896 | 23904 ft | 356 kts | 339° |
| 2026-04-26 17:16 | 50.19648 | 8.45614 | 23414 ft | 353 kts | 339° |
| 2026-04-26 17:16 | 50.21959 | 8.44356 | 22967 ft | 350 kts | 339° |
| 2026-04-26 17:16 | 50.24246 | 8.43122 | 22526 ft | 346 kts | 339° |
| 2026-04-26 17:16 | 50.26518 | 8.41899 | 22077 ft | 344 kts | 339° |
| 2026-04-26 17:17 | 50.28725 | 8.40633 | 21641 ft | 340 kts | 334° |
| 2026-04-26 17:17 | 50.30808 | 8.38819 | 21194 ft | 337 kts | 326° |
| 2026-04-26 17:17 | 50.32776 | 8.36842 | 20747 ft | 336 kts | 326° |
| 2026-04-26 17:17 | 50.34745 | 8.34877 | 20288 ft | 334 kts | 326° |
| 2026-04-26 17:18 | 50.36705 | 8.32926 | 19842 ft | 334 kts | 326° |
| 2026-04-26 17:18 | 50.38663 | 8.30978 | 19398 ft | 333 kts | 326° |
| 2026-04-26 17:18 | 50.40617 | 8.29035 | 18953 ft | 333 kts | 326° |
| 2026-04-26 17:18 | 50.42545 | 8.27114 | 18501 ft | 332 kts | 326° |
| 2026-04-26 17:19 | 50.46427 | 8.23229 | 17583 ft | 329 kts | 326° |
| 2026-04-26 17:19 | 50.48355 | 8.21297 | 17134 ft | 327 kts | 326° |
| 2026-04-26 17:19 | 50.50266 | 8.19373 | 16718 ft | 326 kts | 326° |
| 2026-04-26 17:20 | 50.52169 | 8.17456 | 16286 ft | 325 kts | 326° |
| 2026-04-26 17:20 | 50.52813 | 8.16807 | 16142 ft | 324 kts | 326° |
| 2026-04-26 17:20 | 50.55343 | 8.14251 | 15574 ft | 322 kts | 326° |
| 2026-04-26 17:20 | 50.57226 | 8.12348 | 15150 ft | 321 kts | 326° |
| 2026-04-26 17:21 | 50.59104 | 8.10453 | 14731 ft | 320 kts | 326° |
| 2026-04-26 17:21 | 50.60976 | 8.08562 | 14305 ft | 320 kts | 326° |
| 2026-04-26 17:21 | 50.62852 | 8.06668 | 13821 ft | 320 kts | 327° |
| 2026-04-26 17:21 | 50.64697 | 8.04804 | 13381 ft | 318 kts | 327° |
| 2026-04-26 17:22 | 50.66580 | 8.02902 | 12902 ft | 316 kts | 327° |
| 2026-04-26 17:22 | 50.68406 | 8.01051 | 12476 ft | 314 kts | 327° |
| 2026-04-26 17:22 | 50.70234 | 7.99190 | 12034 ft | 313 kts | 327° |
| 2026-04-26 17:22 | 50.72049 | 7.97317 | 11582 ft | 311 kts | 323° |
| 2026-04-26 17:23 | 50.73577 | 7.94937 | 11131 ft | 309 kts | 306° |
| 2026-04-26 17:23 | 50.74553 | 7.91935 | 10684 ft | 309 kts | 289° |
| 2026-04-26 17:23 | 50.74879 | 7.88608 | 10419 ft | 304 kts | 272° |
| 2026-04-26 17:23 | 50.74655 | 7.85300 | 10292 ft | 294 kts | 265° |
| 2026-04-26 17:24 | 50.74379 | 7.82200 | 10131 ft | 285 kts | 265° |
| 2026-04-26 17:24 | 50.74106 | 7.79112 | 9618 ft | 287 kts | 265° |
| 2026-04-26 17:24 | 50.73833 | 7.76024 | 9378 ft | 280 kts | 265° |
| 2026-04-26 17:24 | 50.73568 | 7.73076 | 9241 ft | 262 kts | 265° |
| 2026-04-26 17:25 | 50.73317 | 7.70336 | 8994 ft | 245 kts | 265° |
| 2026-04-26 17:25 | 50.73079 | 7.67703 | 8514 ft | 240 kts | 265° |
| 2026-04-26 17:25 | 50.72844 | 7.65104 | 7962 ft | 238 kts | 265° |
| 2026-04-26 17:25 | 50.72613 | 7.62527 | 7411 ft | 237 kts | 264° |
| 2026-04-26 17:26 | 50.72381 | 7.59954 | 6856 ft | 236 kts | 264° |
| 2026-04-26 17:26 | 50.72149 | 7.57404 | 6301 ft | 235 kts | 263° |
| 2026-04-26 17:26 | 50.71914 | 7.54844 | 5659 ft | 236 kts | 263° |
| 2026-04-26 17:26 | 50.71679 | 7.52273 | 5080 ft | 236 kts | 262° |
| 2026-04-26 17:27 | 50.71403 | 7.49746 | 4712 ft | 235 kts | 251° |
| 2026-04-26 17:27 | 50.70436 | 7.47743 | 4403 ft | 233 kts | 211° |
| 2026-04-26 17:27 | 50.68890 | 7.47131 | 4154 ft | 230 kts | 181° |
| 2026-04-26 17:27 | 50.67362 | 7.46797 | 4062 ft | 216 kts | 207° |
| 2026-04-26 17:28 | 50.66360 | 7.45162 | 4023 ft | 210 kts | 252° |
| 2026-04-26 17:28 | 50.66369 | 7.42950 | 3971 ft | 200 kts | 297° |
| 2026-04-26 17:28 | 50.67279 | 7.41434 | 3980 ft | 190 kts | 331° |
| 2026-04-26 17:28 | 50.68480 | 7.40608 | 3928 ft | 188 kts | 334° |
| 2026-04-26 17:29 | 50.69563 | 7.39482 | 3878 ft | 187 kts | 319° |
| 2026-04-26 17:29 | 50.70208 | 7.38583 | 3847 ft | 187 kts | 319° |
| 2026-04-26 17:29 | 50.71499 | 7.36752 | 3789 ft | 186 kts | 318° |
| 2026-04-26 17:29 | 50.72467 | 7.35372 | 3668 ft | 188 kts | 318° |
| 2026-04-26 17:30 | 50.73423 | 7.34004 | 3454 ft | 183 kts | 319° |
| 2026-04-26 17:30 | 50.74349 | 7.32677 | 3215 ft | 177 kts | 319° |
| 2026-04-26 17:30 | 50.75239 | 7.31399 | 3038 ft | 169 kts | 319° |
| 2026-04-26 17:30 | 50.76100 | 7.30163 | 2989 ft | 166 kts | 319° |
| 2026-04-26 17:31 | 50.76916 | 7.28988 | 3002 ft | 150 kts | 320° |
| 2026-04-26 17:31 | 50.77657 | 7.27920 | 2990 ft | 141 kts | 319° |
| 2026-04-26 17:31 | 50.78391 | 7.26857 | 2708 ft | 144 kts | 320° |
| 2026-04-26 17:31 | 50.79126 | 7.25767 | 2286 ft | 146 kts | 317° |
| 2026-04-26 17:32 | 50.79873 | 7.24668 | 1945 ft | 147 kts | 321° |
| 2026-04-26 17:32 | 50.80624 | 7.23612 | 1679 ft | 141 kts | 321° |
| 2026-04-26 17:32 | 50.81340 | 7.22593 | 1459 ft | 136 kts | 320° |
| 2026-04-26 17:32 | 50.82038 | 7.21591 | 1265 ft | 135 kts | 319° |
| 2026-04-26 17:33 | 50.82728 | 7.20600 | 1073 ft | 134 kts | 317° |
| 2026-04-26 17:33 | 50.83418 | 7.19604 | 892 ft | 135 kts | 317° |
| 2026-04-26 17:33 | 50.84113 | 7.18602 | 729 ft | 134 kts | 317° |
| 2026-04-26 17:34 | 50.85471 | 7.16598 | 390 ft | 132 kts | 318° |
| 2026-04-26 17:34 | 50.86119 | 7.15700 | 287 ft | 108 kts | 317° |
| 2026-04-26 17:34 | 50.86605 | 7.15005 | 262 ft | 80 kts | 319° |
| 2026-04-26 17:34 | 50.86844 | 7.14620 | 256 ft | 35 kts | 298° |
| 2026-04-26 17:35 | 50.86887 | 7.14338 | 259 ft | 7 kts | 281° |
| 2026-04-26 17:35 | 50.86889 | 7.14320 | 259 ft | 0 kts | 281° |
| 2026-04-26 17:35 | 50.86890 | 7.14315 | 259 ft | 0 kts | 281° |
| 2026-04-26 17:35 | 50.86891 | 7.14307 | 258 ft | 2 kts | 280° |
| 2026-04-26 17:36 | 50.86899 | 7.14237 | 256 ft | 17 kts | 280° |
| 2026-04-26 17:36 | 50.86906 | 7.14171 | 253 ft | 0 kts | 280° |
| 2026-04-26 17:37 | 50.86908 | 7.14150 | 252 ft | 7 kts | 279° |
| 2026-04-26 17:37 | 50.86918 | 7.14048 | 251 ft | 10 kts | 279° |
| 2026-04-26 17:37 | 50.86941 | 7.13909 | 243 ft | 16 kts | 300° |
| 2026-04-26 17:38 | 50.87011 | 7.13797 | 243 ft | 0 kts | 317° |
| 2026-04-26 17:38 | 50.87036 | 7.13761 | 242 ft | 9 kts | 317° |
| 2026-04-26 17:38 | 50.87092 | 7.13678 | 241 ft | 13 kts | 317° |
| 2026-04-26 17:39 | 50.87166 | 7.13569 | 239 ft | 17 kts | 317° |
| 2026-04-26 17:39 | 50.87262 | 7.13432 | 238 ft | 20 kts | 318° |
| 2026-04-26 17:39 | 50.87340 | 7.13320 | 234 ft | 13 kts | 317° |
| 2026-04-26 17:39 | 50.87417 | 7.13208 | 232 ft | 16 kts | 317° |
| 2026-04-26 17:40 | 50.87506 | 7.13079 | 232 ft | 19 kts | 317° |
| 2026-04-26 17:40 | 50.87575 | 7.12981 | 230 ft | 21 kts | 317° |
| 2026-04-26 17:40 | 50.87728 | 7.12759 | 230 ft | 23 kts | 317° |
| 2026-04-26 17:40 | 50.87812 | 7.12638 | 230 ft | 11 kts | 319° |
| 2026-04-26 17:41 | 50.87891 | 7.12616 | 230 ft | 13 kts | 7° |
| 2026-04-26 17:41 | 50.87983 | 7.12595 | 230 ft | 15 kts | 321° |
| 2026-04-26 17:41 | 50.88047 | 7.12450 | 231 ft | 16 kts | 301° |
| 2026-04-26 17:41 | 50.88099 | 7.12322 | 230 ft | 15 kts | 306° |
| 2026-04-26 17:42 | 50.88165 | 7.12179 | 230 ft | 17 kts | 306° |
| 2026-04-26 17:42 | 50.88228 | 7.12039 | 232 ft | 12 kts | 306° |
| 2026-04-26 17:42 | 50.88273 | 7.11942 | 230 ft | 2 kts | 306° |
| 2026-04-26 17:42 | 50.88281 | 7.11925 | 230 ft | 1 kts | 306° |
| 2026-04-26 17:43 | 50.88285 | 7.11920 | 230 ft | 1 kts | 322° |
| 2026-04-26 17:43 | 50.88298 | 7.11920 | 230 ft | 1 kts | 18° |
| 2026-04-26 17:43 | 50.88313 | 7.11928 | 230 ft | 5 kts | 18° |
| 2026-04-26 17:43 | 50.88349 | 7.11947 | 231 ft | 5 kts | 26° |
| 2026-04-26 17:44 | 50.88372 | 7.11971 | 230 ft | 3 kts | 37° |
| 2026-04-26 17:44 | 50.88378 | 7.11978 | 230 ft | 0 kts | 37° |